createdAt,value
2016-07-08T00:00:58.781Z,18.77
2016-07-08T00:01:58.780Z,18.74
2016-07-08T00:02:58.793Z,18.68
2016-07-08T00:03:58.755Z,18.66
2016-07-08T00:04:58.776Z,18.68
2016-07-08T00:05:58.769Z,18.6
2016-07-08T00:06:58.785Z,18.56
2016-07-08T00:07:58.763Z,18.6
2016-07-08T00:08:58.807Z,18.53
2016-07-08T00:09:58.793Z,18.47
2016-07-08T00:10:58.782Z,18.47
2016-07-08T00:11:58.801Z,18.38
2016-07-08T00:12:58.824Z,18.49
2016-07-08T00:13:58.757Z,18.55
2016-07-08T00:14:58.823Z,18.56
2016-07-08T00:15:58.770Z,18.6
2016-07-08T00:16:58.792Z,18.6
2016-07-08T00:17:58.785Z,18.52
2016-07-08T00:18:58.760Z,18.59
2016-07-08T00:19:58.811Z,18.59
2016-07-08T00:20:58.788Z,18.62
2016-07-08T00:21:58.765Z,18.58
2016-07-08T00:22:58.787Z,18.58
2016-07-08T00:23:58.782Z,18.6
2016-07-08T00:24:58.808Z,18.7
2016-07-08T00:25:58.810Z,18.68
2016-07-08T00:26:58.773Z,18.68
2016-07-08T00:27:58.774Z,18.7
2016-07-08T00:28:58.857Z,18.63
2016-07-08T00:29:58.824Z,18.62
2016-07-08T00:30:58.803Z,18.63
2016-07-08T00:31:58.789Z,18.74
2016-07-08T00:32:58.782Z,18.73
2016-07-08T00:33:58.835Z,18.68
2016-07-08T00:34:58.777Z,18.62
2016-07-08T00:35:58.780Z,18.68
2016-07-08T00:36:58.814Z,18.55
2016-07-08T00:37:58.824Z,18.55
2016-07-08T00:38:58.801Z,18.44
2016-07-08T00:39:58.828Z,18.47
2016-07-08T00:40:58.813Z,18.5
2016-07-08T00:41:58.791Z,18.55
2016-07-08T00:42:58.806Z,18.63
2016-07-08T00:43:58.804Z,18.59
2016-07-08T00:44:58.803Z,18.75
2016-07-08T00:45:58.803Z,18.78
2016-07-08T00:46:58.789Z,18.74
2016-07-08T00:47:58.799Z,18.75
2016-07-08T00:48:58.829Z,18.86
2016-07-08T00:49:58.778Z,18.81
2016-07-08T00:50:58.810Z,18.93
2016-07-08T00:51:58.819Z,18.84
2016-07-08T00:52:58.785Z,18.84
2016-07-08T00:53:58.804Z,18.81
2016-07-08T00:54:58.892Z,18.84
2016-07-08T00:55:58.817Z,18.84
2016-07-08T00:56:58.828Z,18.88
2016-07-08T00:57:58.789Z,18.75
2016-07-08T00:59:02.878Z,18.77
2016-07-08T00:59:58.827Z,18.8
2016-07-08T01:00:58.807Z,18.77
2016-07-08T01:01:58.812Z,18.8
2016-07-08T01:02:58.791Z,18.86
2016-07-08T01:03:58.802Z,18.88
2016-07-08T01:04:58.822Z,18.93
2016-07-08T01:05:58.805Z,18.86
2016-07-08T01:06:58.835Z,18.95
2016-07-08T01:07:58.956Z,18.84
2016-07-08T01:08:59.118Z,18.9
2016-07-08T01:09:58.890Z,18.75
2016-07-08T01:10:58.843Z,18.77
2016-07-08T01:11:58.818Z,18.77
2016-07-08T01:12:58.757Z,18.84
2016-07-08T01:13:58.793Z,18.81
2016-07-08T01:14:58.824Z,18.7
2016-07-08T01:15:58.845Z,18.74
2016-07-08T01:16:58.819Z,18.77
2016-07-08T01:17:58.792Z,18.75
2016-07-08T01:18:58.821Z,18.81
2016-07-08T01:19:58.847Z,18.75
2016-07-08T01:20:58.829Z,18.63
2016-07-08T01:21:58.815Z,18.68
2016-07-08T01:22:58.821Z,18.65
2016-07-08T01:23:58.812Z,18.66
2016-07-08T01:24:58.807Z,18.7
2016-07-08T01:25:58.814Z,18.66
2016-07-08T01:26:58.803Z,18.7
2016-07-08T01:27:58.818Z,18.66
2016-07-08T01:28:58.807Z,18.65
2016-07-08T01:29:58.840Z,18.59
2016-07-08T01:30:58.846Z,18.66
2016-07-08T01:31:58.823Z,18.45
2016-07-08T01:32:58.821Z,18.59
2016-07-08T01:33:58.831Z,18.59
2016-07-08T01:34:58.842Z,18.73
2016-07-08T01:35:58.849Z,18.68
2016-07-08T01:36:58.854Z,18.62
2016-07-08T01:37:58.817Z,18.66
2016-07-08T01:38:58.842Z,18.66
2016-07-08T01:39:58.822Z,18.7
2016-07-08T01:40:58.799Z,18.66
2016-07-08T01:41:58.804Z,18.63
2016-07-08T01:42:58.841Z,18.6
2016-07-08T01:43:58.811Z,18.62
2016-07-08T01:44:58.862Z,18.68
2016-07-08T01:45:58.815Z,18.58
2016-07-08T01:46:58.856Z,18.59
2016-07-08T01:47:58.813Z,18.52
2016-07-08T01:48:58.866Z,18.49
2016-07-08T01:49:58.850Z,18.56
2016-07-08T01:50:58.826Z,18.65
2016-07-08T01:51:58.839Z,18.63
2016-07-08T01:52:58.817Z,18.59
2016-07-08T01:53:58.860Z,18.52
2016-07-08T01:54:58.822Z,18.52
2016-07-08T01:55:58.846Z,18.5
2016-07-08T01:56:58.858Z,18.37
2016-07-08T01:57:58.861Z,18.52
2016-07-08T01:58:58.822Z,18.4
2016-07-08T01:59:58.860Z,18.37
2016-07-08T02:00:58.866Z,18.47
2016-07-08T02:01:58.827Z,18.43
2016-07-08T02:02:58.835Z,18.4
2016-07-08T02:03:58.820Z,18.44
2016-07-08T02:04:58.864Z,18.49
2016-07-08T02:05:58.867Z,18.44
2016-07-08T02:06:58.841Z,18.5
2016-07-08T02:07:58.850Z,18.44
2016-07-08T02:08:58.831Z,18.41
2016-07-08T02:09:58.841Z,18.5
2016-07-08T02:10:58.835Z,18.55
2016-07-08T02:11:58.838Z,18.58
2016-07-08T02:12:58.847Z,18.53
2016-07-08T02:13:58.845Z,18.56
2016-07-08T02:14:58.832Z,18.41
2016-07-08T02:15:58.877Z,18.4
2016-07-08T02:16:58.869Z,18.45
2016-07-08T02:17:58.862Z,18.52
2016-07-08T02:18:58.819Z,18.52
2016-07-08T02:19:58.845Z,18.53
2016-07-08T02:20:58.850Z,18.4
2016-07-08T02:21:58.838Z,18.49
2016-07-08T02:22:58.854Z,18.41
2016-07-08T02:23:58.869Z,18.37
2016-07-08T02:24:58.808Z,18.28
2016-07-08T02:25:58.851Z,18.38
2016-07-08T02:26:58.874Z,18.28
2016-07-08T02:27:58.850Z,18.26
2016-07-08T02:28:58.879Z,18.29
2016-07-08T02:29:58.951Z,18.28
2016-07-08T02:30:58.871Z,18.33
2016-07-08T02:31:58.836Z,18.41
2016-07-08T02:32:58.855Z,18.31
2016-07-08T02:33:58.866Z,18.34
2016-07-08T02:34:58.854Z,18.4
2016-07-08T02:35:58.824Z,18.37
2016-07-08T02:36:58.831Z,18.34
2016-07-08T02:37:58.849Z,18.33
2016-07-08T02:38:58.859Z,18.41
2016-07-08T02:39:58.835Z,18.34
2016-07-08T02:40:58.847Z,18.23
2016-07-08T02:41:58.854Z,18.34
2016-07-08T02:42:58.845Z,18.35
2016-07-08T02:43:58.898Z,18.5
2016-07-08T02:44:58.850Z,18.4
2016-07-08T02:45:58.868Z,18.44
2016-07-08T02:46:58.852Z,18.41
2016-07-08T02:47:58.864Z,18.28
2016-07-08T02:48:58.884Z,18.37
2016-07-08T02:49:58.875Z,18.4
2016-07-08T02:50:58.838Z,18.33
2016-07-08T02:51:58.875Z,18.38
2016-07-08T02:52:58.897Z,18.4
2016-07-08T02:53:58.932Z,18.29
2016-07-08T02:54:58.856Z,18.2
2016-07-08T02:55:58.879Z,18.22
2016-07-08T02:56:58.841Z,18.2
2016-07-08T02:57:58.900Z,18.25
2016-07-08T02:58:58.927Z,18.16
2016-07-08T02:59:58.916Z,18.29
2016-07-08T03:00:58.852Z,18.22
2016-07-08T03:01:58.864Z,18.19
2016-07-08T03:02:58.840Z,18.2
2016-07-08T03:03:58.885Z,18.29
2016-07-08T03:04:58.894Z,18.22
2016-07-08T03:05:58.854Z,18.23
2016-07-08T03:06:58.878Z,18.13
2016-07-08T03:07:58.871Z,18.16
2016-07-08T03:08:58.913Z,18.28
2016-07-08T03:09:58.856Z,18.25
2016-07-08T03:10:58.847Z,18.13
2016-07-08T03:11:58.897Z,18.1
2016-07-08T03:12:58.891Z,18.13
2016-07-08T03:13:58.879Z,17.94
2016-07-08T03:14:58.898Z,18.03
2016-07-08T03:15:58.868Z,17.98
2016-07-08T03:16:58.874Z,18.05
2016-07-08T03:17:58.888Z,17.98
2016-07-08T03:18:58.874Z,18.03
2016-07-08T03:19:58.920Z,18
2016-07-08T03:20:58.864Z,18.01
2016-07-08T03:21:58.885Z,17.97
2016-07-08T03:22:58.896Z,17.98
2016-07-08T03:23:58.885Z,17.98
2016-07-08T03:24:58.904Z,17.98
2016-07-08T03:25:58.854Z,18.04
2016-07-08T03:26:58.847Z,18.04
2016-07-08T03:27:58.872Z,18.05
2016-07-08T03:28:58.918Z,18.13
2016-07-08T03:29:58.919Z,17.95
2016-07-08T03:30:58.872Z,18.04
2016-07-08T03:31:58.897Z,17.98
2016-07-08T03:32:58.914Z,18.05
2016-07-08T03:33:58.939Z,18.05
2016-07-08T03:34:58.858Z,18.1
2016-07-08T03:35:58.872Z,18.13
2016-07-08T03:36:58.875Z,17.94
2016-07-08T03:37:58.880Z,17.87
2016-07-08T03:38:58.899Z,17.97
2016-07-08T03:39:58.873Z,17.9
2016-07-08T03:40:58.887Z,17.87
2016-07-08T03:41:58.901Z,17.94
2016-07-08T03:42:58.884Z,17.9
2016-07-08T03:43:58.882Z,17.94
2016-07-08T03:44:58.931Z,17.98
2016-07-08T03:45:58.882Z,18.01
2016-07-08T03:46:58.875Z,18.05
2016-07-08T03:47:58.910Z,18.1
2016-07-08T03:48:58.898Z,18.19
2016-07-08T03:49:58.929Z,18.1
2016-07-08T03:50:58.929Z,18.04
2016-07-08T03:51:58.887Z,17.98
2016-07-08T03:52:58.949Z,17.94
2016-07-08T03:53:58.932Z,17.95
2016-07-08T03:54:58.887Z,17.87
2016-07-08T03:55:58.878Z,18.03
2016-07-08T03:56:58.895Z,18.08
2016-07-08T03:57:58.891Z,18.07
2016-07-08T03:58:58.896Z,18.08
2016-07-08T03:59:58.934Z,18.08
2016-07-08T04:00:58.877Z,18.08
2016-07-08T04:01:58.902Z,18.16
2016-07-08T04:02:58.909Z,18.11
2016-07-08T04:03:58.880Z,18.08
2016-07-08T04:04:58.923Z,18.18
2016-07-08T04:05:58.931Z,18.16
2016-07-08T04:06:58.855Z,18.13
2016-07-08T04:07:58.903Z,18.13
2016-07-08T04:08:58.885Z,18.1
2016-07-08T04:09:58.884Z,18.05
2016-07-08T04:10:58.910Z,18.08
2016-07-08T04:11:58.900Z,18.03
2016-07-08T04:12:58.907Z,18.04
2016-07-08T04:13:58.886Z,18.07
2016-07-08T04:14:58.907Z,18.1
2016-07-08T04:15:58.893Z,18.13
2016-07-08T04:16:58.906Z,18.07
2016-07-08T04:17:58.928Z,18.03
2016-07-08T04:18:58.894Z,18.07
2016-07-08T04:19:58.924Z,18.11
2016-07-08T04:20:58.875Z,18.1
2016-07-08T04:21:58.931Z,18.08
2016-07-08T04:22:58.896Z,17.98
2016-07-08T04:23:58.913Z,17.97
2016-07-08T04:24:58.946Z,17.92
2016-07-08T04:25:58.944Z,17.87
2016-07-08T04:26:58.930Z,17.9
2016-07-08T04:27:58.945Z,17.94
2016-07-08T04:28:58.903Z,17.95
2016-07-08T04:29:58.929Z,18
2016-07-08T04:30:58.909Z,18.05
2016-07-08T04:31:58.899Z,18.08
2016-07-08T04:32:58.880Z,18.13
2016-07-08T04:33:58.934Z,18.37
2016-07-08T04:34:58.885Z,18.59
2016-07-08T04:35:58.903Z,18.81
2016-07-08T04:36:58.943Z,19.34
2016-07-08T04:37:58.912Z,19.86
2016-07-08T04:38:58.917Z,20.16
2016-07-08T04:39:58.914Z,20.36
2016-07-08T04:40:58.919Z,20.11
2016-07-08T04:41:58.939Z,20.03
2016-07-08T04:42:58.942Z,20.04
2016-07-08T04:43:58.913Z,19.96
2016-07-08T04:44:58.941Z,19.95
2016-07-08T04:45:58.944Z,20.07
2016-07-08T04:46:58.912Z,20.67
2016-07-08T04:47:58.911Z,21.35
2016-07-08T04:48:58.978Z,21.85
2016-07-08T04:49:58.886Z,22.22
2016-07-08T04:50:58.919Z,22.39
2016-07-08T05:03:59.294Z,20.62
2016-07-08T05:04:15.886Z,20.65
2016-07-08T05:05:15.688Z,20.55
2016-07-08T05:06:15.709Z,20.58
2016-07-08T05:07:15.704Z,20.77
2016-07-08T05:08:15.686Z,20.84
2016-07-08T05:09:15.742Z,20.85
2016-07-08T05:10:15.727Z,20.96
2016-07-08T05:11:15.702Z,21.14
2016-07-08T05:12:15.712Z,21.35
2016-07-08T05:13:15.704Z,21.45
2016-07-08T05:14:15.681Z,21.72
2016-07-08T05:15:15.702Z,21.61
2016-07-08T05:16:15.710Z,21.64
2016-07-08T05:17:15.712Z,21.36
2016-07-08T05:18:15.834Z,21.11
2016-07-08T05:19:15.727Z,20.93
2016-07-08T05:20:15.741Z,20.87
2016-07-08T05:21:15.726Z,20.66
2016-07-08T05:22:15.703Z,20.48
2016-07-08T05:23:15.710Z,20.39
2016-07-08T05:24:15.752Z,20.26
2016-07-08T05:25:15.709Z,20.24
2016-07-08T05:26:15.735Z,20.25
2016-07-08T05:27:15.723Z,20.11
2016-07-08T05:28:15.757Z,20.1
2016-07-08T05:29:15.725Z,20.16
2016-07-08T05:30:15.776Z,20.32
2016-07-08T05:31:15.727Z,20.4
2016-07-08T05:32:15.724Z,20.6
2016-07-08T05:33:15.766Z,20.77
2016-07-08T05:34:15.740Z,20.78
2016-07-08T05:35:15.731Z,20.81
2016-07-08T05:36:15.753Z,20.75
2016-07-08T05:37:15.774Z,20.55
2016-07-08T05:38:15.753Z,20.36
2016-07-08T05:39:15.704Z,20.39
2016-07-08T05:40:15.756Z,20.18
2016-07-08T05:41:15.746Z,20.14
2016-07-08T05:42:15.705Z,20.25
2016-07-08T05:43:15.743Z,20.24
2016-07-08T05:44:15.800Z,20.16
2016-07-08T05:45:15.737Z,20.29
2016-07-08T05:46:15.712Z,20.25
2016-07-08T05:47:15.751Z,20.31
2016-07-08T05:48:15.767Z,20.36
2016-07-08T05:49:15.744Z,20.37
2016-07-08T05:50:15.719Z,20.44
2016-07-08T05:51:15.728Z,20.5
2016-07-08T05:52:15.760Z,20.48
2016-07-08T05:53:15.700Z,20.56
2016-07-08T05:54:15.698Z,20.47
2016-07-08T05:55:15.783Z,20.36
2016-07-08T05:56:15.737Z,20.37
2016-07-08T05:57:15.754Z,20.32
2016-07-08T05:58:17.124Z,20.32
2016-07-08T05:59:15.745Z,20.21
2016-07-08T06:00:15.744Z,20.25
2016-07-08T06:01:15.771Z,20.11
2016-07-08T06:02:15.751Z,20.04
2016-07-08T06:03:15.754Z,19.95
2016-07-08T06:04:15.875Z,19.92
2016-07-08T06:05:15.762Z,19.95
2016-07-08T06:06:15.716Z,19.94
2016-07-08T06:07:15.809Z,19.95
2016-07-08T06:08:15.767Z,19.99
2016-07-08T06:09:15.752Z,20.03
2016-07-08T06:10:15.780Z,20.1
2016-07-08T06:11:15.753Z,20.04
2016-07-08T06:12:15.787Z,20.11
2016-07-08T06:13:15.741Z,20.21
2016-07-08T06:14:15.700Z,20.28
2016-07-08T06:15:15.729Z,20.24
2016-07-08T06:16:15.776Z,20.22
2016-07-08T06:17:15.785Z,20.26
2016-07-08T06:18:15.783Z,20.22
2016-07-08T06:19:15.755Z,20.24
2016-07-08T06:20:15.762Z,20.31
2016-07-08T06:21:15.709Z,20.32
2016-07-08T06:22:15.762Z,20.36
2016-07-08T06:23:15.740Z,20.4
2016-07-08T06:24:15.809Z,20.37
2016-07-08T06:25:15.787Z,20.52
2016-07-08T06:26:15.775Z,20.7
2016-07-08T06:27:15.784Z,20.78
2016-07-08T06:28:15.792Z,20.87
2016-07-08T06:29:15.787Z,20.99
2016-07-08T06:30:15.763Z,20.85
2016-07-08T06:31:15.785Z,20.84
2016-07-08T06:32:15.893Z,20.9
2016-07-08T06:33:16.448Z,20.97
2016-07-08T06:34:15.812Z,21.27
2016-07-08T06:35:15.782Z,21.45
2016-07-08T06:36:15.847Z,21.5
2016-07-08T06:37:15.765Z,21.77
2016-07-08T06:38:15.772Z,21.89
2016-07-08T06:39:15.751Z,22.22
2016-07-08T06:40:15.765Z,22.2
2016-07-08T06:41:15.774Z,22.23
2016-07-08T06:42:16.110Z,22.17
2016-07-08T06:43:15.802Z,21.99
2016-07-08T06:44:15.861Z,21.83
2016-07-08T06:45:15.921Z,21.82
2016-07-08T06:46:15.801Z,21.8
2016-07-08T06:47:15.950Z,21.8
2016-07-08T06:48:15.792Z,21.76
2016-07-08T06:49:15.798Z,21.67
2016-07-08T06:50:15.791Z,21.64
2016-07-08T06:51:16.217Z,21.67
2016-07-08T06:52:15.784Z,21.55
2016-07-08T06:53:15.794Z,21.77
2016-07-08T06:54:15.778Z,21.73
2016-07-08T06:55:15.811Z,21.72
2016-07-08T06:56:16.572Z,21.75
2016-07-08T06:57:15.797Z,21.6
2016-07-08T06:58:15.848Z,21.69
2016-07-08T06:59:15.804Z,21.79
2016-07-08T07:00:15.841Z,21.62
2016-07-08T07:01:15.772Z,21.77
2016-07-08T07:02:15.888Z,21.8
2016-07-08T07:03:15.798Z,21.83
2016-07-08T07:04:16.508Z,21.92
2016-07-08T07:05:17.350Z,22.02
2016-07-08T07:06:16.161Z,22.02
2016-07-08T07:07:15.835Z,22.22
2016-07-08T07:08:15.890Z,22.22
2016-07-08T07:09:15.791Z,22.2
2016-07-08T07:10:15.823Z,22.2
2016-07-08T07:11:15.827Z,22.11
2016-07-08T07:12:15.794Z,22.04
2016-07-08T07:13:15.821Z,21.91
2016-07-08T07:14:15.802Z,21.85
2016-07-08T07:15:15.800Z,21.92
2016-07-08T07:16:15.840Z,21.8
2016-07-08T07:17:15.863Z,21.79
2016-07-08T07:18:15.782Z,21.82
2016-07-08T07:19:15.807Z,21.77
2016-07-08T07:20:15.854Z,21.79
2016-07-08T07:21:15.815Z,21.79
2016-07-08T07:22:16.015Z,21.85
2016-07-08T07:23:15.947Z,21.85
2016-07-08T07:24:16.365Z,21.79
2016-07-08T07:25:15.937Z,21.82
2016-07-08T07:26:16.576Z,21.77
2016-07-08T07:27:16.182Z,21.73
2016-07-08T07:28:15.826Z,21.82
2016-07-08T07:29:15.849Z,21.8
2016-07-08T07:30:16.517Z,21.93
2016-07-08T07:31:16.828Z,21.77
2016-07-08T07:32:18.087Z,21.8
2016-07-08T07:33:16.143Z,21.91
2016-07-08T07:34:20.332Z,21.79
2016-07-08T07:35:17.265Z,21.91
2016-07-08T07:36:16.636Z,21.96
2016-07-08T07:37:16.057Z,21.96
2016-07-08T07:38:15.895Z,21.8
2016-07-08T07:39:16.169Z,21.83
2016-07-08T07:40:16.255Z,21.91
2016-07-08T07:41:15.846Z,21.77
2016-07-08T07:42:15.991Z,21.77
2016-07-08T07:43:15.951Z,21.82
2016-07-08T07:44:16.738Z,21.79
2016-07-08T07:45:15.910Z,21.91
2016-07-08T07:46:16.302Z,21.91
2016-07-08T07:47:16.734Z,21.91
2016-07-08T07:48:15.861Z,21.99
2016-07-08T07:49:15.788Z,22.11
2016-07-08T07:50:15.831Z,22.07
2016-07-08T07:51:15.991Z,22.07
2016-07-08T07:52:15.922Z,22.11
2016-07-08T07:53:15.822Z,22.1
2016-07-08T07:54:15.876Z,22.18
2016-07-08T07:55:16.061Z,22.2
2016-07-08T07:56:15.832Z,22.13
2016-07-08T07:57:15.903Z,22.23
2016-07-08T07:58:15.855Z,22.28
2016-07-08T07:59:15.809Z,22.32
2016-07-08T08:00:17.422Z,22.38
2016-07-08T08:01:15.820Z,22.48
2016-07-08T08:02:15.892Z,22.53
2016-07-08T08:03:15.905Z,22.53
2016-07-08T08:04:15.849Z,22.66
2016-07-08T08:05:15.833Z,22.76
2016-07-08T08:06:16.518Z,22.66
2016-07-08T08:07:15.861Z,22.68
2016-07-08T08:08:15.829Z,22.83
2016-07-08T08:09:15.834Z,22.84
2016-07-08T08:10:15.841Z,22.99
2016-07-08T08:11:15.854Z,23.27
2016-07-08T08:12:15.826Z,23.4
2016-07-08T08:13:15.836Z,23.44
2016-07-08T08:14:15.820Z,23.44
2016-07-08T08:15:15.839Z,23.62
2016-07-08T08:16:15.993Z,23.31
2016-07-08T08:17:15.903Z,23.32
2016-07-08T08:18:15.836Z,23.31
2016-07-08T08:19:15.973Z,23.37
2016-07-08T08:20:15.979Z,23.34
2016-07-08T08:21:15.928Z,23.58
2016-07-08T08:22:15.931Z,23.51
2016-07-08T08:23:15.905Z,23.62
2016-07-08T08:24:15.867Z,23.84
2016-07-08T08:25:15.845Z,24.13
2016-07-08T08:26:15.841Z,24.32
2016-07-08T08:27:15.922Z,24.43
2016-07-08T08:28:15.867Z,24.54
2016-07-08T08:37:33.213Z,23.71
2016-07-08T08:38:33.219Z,23.56
2016-07-08T08:39:33.172Z,23.62
2016-07-08T08:40:33.308Z,23.68
2016-07-08T08:41:33.153Z,23.62
2016-07-08T08:42:33.238Z,23.61
2016-07-08T08:43:33.338Z,23.68
2016-07-08T08:44:33.310Z,23.76
2016-07-08T08:45:33.176Z,23.69
2016-07-08T08:46:43.691Z,23.58
2016-07-08T08:47:33.230Z,23.5
2016-07-08T08:48:33.177Z,23.32
2016-07-08T08:49:33.170Z,23.51
2016-07-08T08:50:33.220Z,23.59
2016-07-08T08:51:33.148Z,23.47
2016-07-08T08:52:33.209Z,23.56
2016-07-08T08:53:33.209Z,23.55
2016-07-08T08:54:33.168Z,23.54
2016-07-08T08:55:33.312Z,23.65
2016-07-08T08:56:33.151Z,23.56
2016-07-08T08:57:33.169Z,23.58
2016-07-08T08:58:38.226Z,23.51
2016-07-08T08:59:38.588Z,23.4
2016-07-08T09:00:33.551Z,23.37
2016-07-08T09:01:33.152Z,23.21
2016-07-08T09:02:33.182Z,23.03
2016-07-08T09:03:33.218Z,22.91
2016-07-08T09:04:33.788Z,22.83
2016-07-08T09:05:33.191Z,22.76
2016-07-08T09:06:33.195Z,22.65
2016-07-08T09:07:33.303Z,22.51
2016-07-08T09:08:33.255Z,22.59
2016-07-08T09:09:33.373Z,22.53
2016-07-08T09:10:33.325Z,22.57
2016-07-08T09:11:33.212Z,22.55
2016-07-08T09:12:33.266Z,22.66
2016-07-08T09:13:33.185Z,22.73
2016-07-08T09:14:34.036Z,22.75
2016-07-08T09:15:33.319Z,22.91
2016-07-08T09:16:33.229Z,22.99
2016-07-08T09:17:33.237Z,23.09
2016-07-08T09:18:33.288Z,23.2
2016-07-08T09:19:33.192Z,23.23
2016-07-08T09:20:33.291Z,23.36
2016-07-08T09:21:33.282Z,23.32
2016-07-08T09:22:33.185Z,23.25
2016-07-08T09:23:33.260Z,23.36
2016-07-08T09:24:33.237Z,23.34
2016-07-08T09:25:33.353Z,23.34
2016-07-08T09:26:33.399Z,23.24
2016-07-08T09:27:33.791Z,23.28
2016-07-08T09:28:33.278Z,23.15
2016-07-08T09:29:33.308Z,23.21
2016-07-08T09:30:33.191Z,23.36
2016-07-08T09:31:33.206Z,23.23
2016-07-08T09:32:33.352Z,23.27
2016-07-08T09:33:33.197Z,23.37
2016-07-08T09:34:33.176Z,23.37
2016-07-08T09:35:33.236Z,23.32
2016-07-08T09:36:33.237Z,23.31
2016-07-08T09:37:34.841Z,23.4
2016-07-08T09:38:33.201Z,23.5
2016-07-08T09:39:33.253Z,23.51
2016-07-08T09:40:33.406Z,23.5
2016-07-08T09:41:33.284Z,23.54
2016-07-08T09:42:33.217Z,23.8
2016-07-08T09:43:33.295Z,23.84
2016-07-08T09:44:34.215Z,23.98
2016-07-08T09:45:33.599Z,24.11
2016-07-08T09:46:33.676Z,24.28
2016-07-08T09:47:33.435Z,24.3
2016-07-08T09:48:33.355Z,24.3
2016-07-08T09:49:33.229Z,24.35
2016-07-08T09:50:33.215Z,24.4
2016-07-08T09:51:33.212Z,24.35
2016-07-08T09:52:33.228Z,24.11
2016-07-08T09:53:33.216Z,24.06
2016-07-08T09:54:33.254Z,24.11
2016-07-08T09:55:34.916Z,24.05
2016-07-08T09:56:33.225Z,24.16
2016-07-08T09:57:33.283Z,24.03
2016-07-08T09:58:33.294Z,24.06
2016-07-08T09:59:33.228Z,24.05
2016-07-08T10:00:33.345Z,24.1
2016-07-08T10:01:33.471Z,24.16
2016-07-08T10:02:33.437Z,24.14
2016-07-08T10:03:34.266Z,23.96
2016-07-08T10:04:33.463Z,23.96
2016-07-08T10:05:33.224Z,23.88
2016-07-08T10:06:33.203Z,23.78
2016-07-08T10:07:33.182Z,23.95
2016-07-08T10:08:35.995Z,23.88
2016-07-08T10:09:35.388Z,23.81
2016-07-08T10:10:33.587Z,23.96
2016-07-08T10:11:33.258Z,23.93
2016-07-08T10:12:33.198Z,23.84
2016-07-08T10:13:33.414Z,23.88
2016-07-08T10:14:35.288Z,23.84
2016-07-08T10:15:33.264Z,23.76
2016-07-08T10:16:33.344Z,23.77
2016-07-08T10:17:33.564Z,23.66
2016-07-08T10:18:34.154Z,23.66
2016-07-08T10:19:37.701Z,23.56
2016-07-08T10:20:33.233Z,23.54
2016-07-08T10:21:39.294Z,23.46
2016-07-08T10:22:33.252Z,23.28
2016-07-08T10:23:33.701Z,23.43
2016-07-08T10:24:41.604Z,23.28
2016-07-08T10:25:33.234Z,23.36
2016-07-08T10:26:33.214Z,23.34
2016-07-08T10:27:33.836Z,23.24
2016-07-08T10:28:33.524Z,23.25
2016-07-08T10:29:33.410Z,23.31
2016-07-08T10:30:33.475Z,23.32
2016-07-08T10:31:33.286Z,23.41
2016-07-08T10:32:33.290Z,23.34
2016-07-08T10:33:35.499Z,23.58
2016-07-08T10:34:34.266Z,23.69
2016-07-08T10:35:33.649Z,23.62
2016-07-08T10:36:33.360Z,23.63
2016-07-08T10:37:33.427Z,23.71
2016-07-08T10:38:34.339Z,23.76
2016-07-08T10:39:33.279Z,23.65
2016-07-08T10:40:33.355Z,23.88
2016-07-08T10:41:33.527Z,24.01
2016-07-08T10:42:33.853Z,24.01
2016-07-08T10:43:44.231Z,24.01
2016-07-08T10:44:34.107Z,23.87
2016-07-08T10:45:33.701Z,23.84
2016-07-08T10:46:33.284Z,23.95
2016-07-08T10:47:33.421Z,23.86
2016-07-08T10:48:34.267Z,23.78
2016-07-08T10:49:33.584Z,23.73
2016-07-08T10:50:34.542Z,23.76
2016-07-08T10:51:33.350Z,23.73
2016-07-08T10:52:33.386Z,23.78
2016-07-08T10:53:33.343Z,23.93
2016-07-08T10:54:33.282Z,23.87
2016-07-08T10:55:33.248Z,23.86
2016-07-08T10:56:33.428Z,23.91
2016-07-08T10:57:33.264Z,23.91
2016-07-08T10:58:33.700Z,23.91
2016-07-08T10:59:33.271Z,23.81
2016-07-08T11:00:33.366Z,23.76
2016-07-08T11:01:35.846Z,23.76
2016-07-08T11:02:41.566Z,23.74
2016-07-08T11:03:33.376Z,23.84
2016-07-08T11:04:33.299Z,23.98
2016-07-08T11:05:33.280Z,23.96
2016-07-08T11:06:38.282Z,23.86
2016-07-08T11:07:41.103Z,23.96
2016-07-08T11:08:33.741Z,24.01
2016-07-08T11:09:35.608Z,24.06
2016-07-08T11:10:45.170Z,23.83
2016-07-08T11:11:33.371Z,23.76
2016-07-08T11:12:33.584Z,23.77
2016-07-08T11:13:33.814Z,23.56
2016-07-08T11:14:35.311Z,23.48
2016-07-08T11:15:33.939Z,23.56
2016-07-08T11:16:33.383Z,23.54
2016-07-08T11:17:33.430Z,23.56
2016-07-08T11:18:50.357Z,23.62
2016-07-08T11:20:46.671Z,23.48
2016-07-08T11:21:45.580Z,23.55
2016-07-08T11:35:00.351Z,23.55
2016-07-08T11:36:00.377Z,23.58
2016-07-08T11:37:00.308Z,23.56
2016-07-08T11:38:00.560Z,23.63
2016-07-08T11:39:00.440Z,23.66
2016-07-08T11:40:00.310Z,23.63
2016-07-08T11:41:00.272Z,23.62
2016-07-08T11:42:20.540Z,23.66
2016-07-08T11:43:02.681Z,23.65
2016-07-08T11:44:00.390Z,23.59
2016-07-08T11:45:11.449Z,23.44
2016-07-08T11:46:00.756Z,23.46
2016-07-08T11:47:01.384Z,23.34
2016-07-08T11:48:01.083Z,23.39
2016-07-08T11:49:00.294Z,23.17
2016-07-08T11:50:02.623Z,23.25
2016-07-08T11:51:00.337Z,23.27
2016-07-08T11:52:00.776Z,23.39
2016-07-08T11:53:01.007Z,23.5
2016-07-08T11:54:00.477Z,23.51
2016-07-08T11:55:00.323Z,23.58
2016-07-08T11:56:00.520Z,23.54
2016-07-08T11:57:03.872Z,23.54
2016-07-08T11:58:00.286Z,23.73
2016-07-08T11:59:00.405Z,23.68
2016-07-08T12:00:00.358Z,23.81
2016-07-08T12:01:05.315Z,23.99
2016-07-08T12:02:00.369Z,24.16
2016-07-08T12:03:00.546Z,23.77
2016-07-08T12:04:00.301Z,23.84
2016-07-08T12:05:00.713Z,23.81
2016-07-08T12:06:11.730Z,24.02
2016-07-08T12:07:08.140Z,24.08
2016-07-08T12:08:11.204Z,24.01
2016-07-08T12:09:00.407Z,23.96
2016-07-08T12:10:00.302Z,23.99
2016-07-08T12:11:00.499Z,23.87
2016-07-08T12:12:00.707Z,23.88
2016-07-08T12:13:03.315Z,23.91
2016-07-08T12:14:03.712Z,23.95
2016-07-08T12:15:00.262Z,23.99
2016-07-08T12:16:01.271Z,23.96
2016-07-08T12:17:00.376Z,24.05
2016-07-08T12:18:00.316Z,24.39
2016-07-08T12:19:00.318Z,24.6
2016-07-08T12:20:00.323Z,24.91
2016-07-08T12:21:00.460Z,25.26
2016-07-08T12:22:00.345Z,25.43
2016-07-08T12:23:00.321Z,25.6
2016-07-08T12:24:49.062Z,25.68
2016-07-08T12:25:05.655Z,25.9
2016-07-08T12:26:17.986Z,26.28
2016-07-08T12:27:39.417Z,26.59
2016-07-08T12:28:06.191Z,26.88
2016-07-08T12:29:07.919Z,27.6
2016-07-08T12:30:22.574Z,26.85
2016-07-08T12:31:05.693Z,26.71
2016-07-08T12:32:10.331Z,26.4
2016-07-08T12:33:10.086Z,26.13
2016-07-08T12:35:05.102Z,25.96
2016-07-08T12:35:21.795Z,26.05
2016-07-08T12:36:24.364Z,26.15
2016-07-08T12:37:21.679Z,26.15
2016-07-08T12:38:47.522Z,25.75
2016-07-08T12:39:37.126Z,25.51
2016-07-08T12:40:22.285Z,25.48
2016-07-08T12:41:26.319Z,25.32
2016-07-08T12:42:21.770Z,25.44
2016-07-08T12:43:35.702Z,25.41
2016-07-08T12:44:22.127Z,25.33
2016-07-08T12:45:24.915Z,25.17
2016-07-08T12:46:22.786Z,25.04
2016-07-08T12:47:21.911Z,24.8
2016-07-08T12:48:21.901Z,24.6
2016-07-08T12:49:38.102Z,24.39
2016-07-08T12:50:21.690Z,24.28
2016-07-08T12:51:22.171Z,24.24
2016-07-08T12:52:22.095Z,24.29
2016-07-08T12:53:42.063Z,24.29
2016-07-08T12:54:21.811Z,24.2
2016-07-08T12:55:35.110Z,24.28
2016-07-08T12:56:21.632Z,24.48
2016-07-08T12:57:21.983Z,24.53
2016-07-08T12:58:22.495Z,24.57
2016-07-08T12:59:28.037Z,24.54
2016-07-08T13:00:39.329Z,24.51
2016-07-08T13:02:02.613Z,24.73
2016-07-08T13:02:44.445Z,24.69
2016-07-08T13:03:40.627Z,24.65
2016-07-08T13:04:51.176Z,24.65
2016-07-08T13:05:46.701Z,24.5
2016-07-08T13:06:53.746Z,24.36
2016-07-08T13:07:39.458Z,24.38
2016-07-08T13:08:39.157Z,24.43
2016-07-08T13:09:39.183Z,24.51
2016-07-08T13:10:41.440Z,24.53
2016-07-08T13:11:39.153Z,24.65
2016-07-08T13:13:15.372Z,24.54
2016-07-08T13:13:39.413Z,24.6
2016-07-08T13:14:39.396Z,24.54
2016-07-08T13:15:52.671Z,24.39
2016-07-08T13:16:40.463Z,24.26
2016-07-08T13:17:42.151Z,24.26
2016-07-08T13:18:39.204Z,24.08
2016-07-08T13:20:13.712Z,23.99
2016-07-08T13:21:02.440Z,23.91
2016-07-08T13:26:24.039Z,23.61
2016-07-08T13:26:41.038Z,23.62
2016-07-08T13:29:07.607Z,23.47
2016-07-08T13:30:54.424Z,23.25
2016-07-08T13:31:12.836Z,23.32
2016-07-08T13:32:33.830Z,23.17
2016-07-08T13:33:38.091Z,23.12
2016-07-08T13:34:15.563Z,23.23
2016-07-08T13:35:12.959Z,23.17